Maple Hill, Iowa
Current Conditions -  °F | °C
As of 11:52 PM on Tuesday 27 Jan 2015 (Local Time) from KEST Reporting Station
Haze Haze  
Wind Chill: 18°   Ceiling: 600
Heat Index: 30°   Visibility: 6mi
Dew Point: 29°   Wind: 20mph
Humidity: 96%   Direction: 160°SSE
Pressure: 30.03"   Gusts: NA
Location:  43.4207°N, 94.5018°W
Report Text: KEST 280552Z AUTO 16017KT 6SM BR OVC006 M01/M02 A3003 RMK AO2 SLP184 T10111017 10006 21011 400331033 58008
Loading
Personal Weather Stations






























Interactive Weather Map New forecast layout! Learn more

10-Day Weather Forecast

Advertisements
Track Severe Weather on mobile